sensor_id;sensor_type;location;lat;lon;timestamp;pressure;altitude;pressure_sealevel;temperature;humidity
49030;BME280;43337;52.070;4.508;2022-09-02T00:01:29;101845.53;;;18.30;47.90
49030;BME280;43337;52.070;4.508;2022-09-02T00:04:20;101802.88;;;18.00;48.21
49030;BME280;43337;52.070;4.508;2022-09-02T00:06:47;101858.06;;;18.28;48.17
49030;BME280;43337;52.070;4.508;2022-09-02T00:09:15;101855.59;;;18.25;47.99
49030;BME280;43337;52.070;4.508;2022-09-02T00:11:42;101840.03;;;18.17;48.24
49030;BME280;43337;52.070;4.508;2022-09-02T00:14:12;101839.13;;;18.18;48.22
49030;BME280;43337;52.070;4.508;2022-09-02T00:16:39;101830.09;;;18.05;48.14
49030;BME280;43337;52.070;4.508;2022-09-02T00:19:06;101840.47;;;18.10;48.15
49030;BME280;43337;52.070;4.508;2022-09-02T00:21:32;101844.88;;;18.11;48.27
49030;BME280;43337;52.070;4.508;2022-09-02T00:24:00;101844.00;;;18.10;48.54
49030;BME280;43337;52.070;4.508;2022-09-02T00:26:27;101839.91;;;18.04;48.37
49030;BME280;43337;52.070;4.508;2022-09-02T00:28:52;101807.28;;;17.85;48.43
49030;BME280;43337;52.070;4.508;2022-09-02T00:31:21;101825.47;;;17.93;48.43
49030;BME280;43337;52.070;4.508;2022-09-02T00:33:49;101815.16;;;17.87;48.75
49030;BME280;43337;52.070;4.508;2022-09-02T00:36:16;101838.53;;;17.97;48.61
49030;BME280;43337;52.070;4.508;2022-09-02T00:38:41;101827.47;;;17.89;48.75
49030;BME280;43337;52.070;4.508;2022-09-02T00:41:09;101836.03;;;17.94;48.76
49030;BME280;43337;52.070;4.508;2022-09-02T00:46:07;101823.34;;;17.84;48.88
49030;BME280;43337;52.070;4.508;2022-09-02T00:48:33;101822.13;;;17.89;48.81
49030;BME280;43337;52.070;4.508;2022-09-02T00:51:00;101823.09;;;17.88;48.87
49030;BME280;43337;52.070;4.508;2022-09-02T00:53:28;101818.94;;;17.83;48.95
49030;BME280;43337;52.070;4.508;2022-09-02T00:55:54;101818.25;;;17.79;48.85
49030;BME280;43337;52.070;4.508;2022-09-02T00:58:24;101817.50;;;17.77;49.16
49030;BME280;43337;52.070;4.508;2022-09-02T01:00:52;101818.50;;;17.74;49.00
49030;BME280;43337;52.070;4.508;2022-09-02T01:03:22;101815.94;;;17.73;49.04
49030;BME280;43337;52.070;4.508;2022-09-02T01:05:49;101813.44;;;17.70;49.17
49030;BME280;43337;52.070;4.508;2022-09-02T01:08:20;101804.00;;;17.64;49.30
49030;BME280;43337;52.070;4.508;2022-09-02T01:10:50;101804.75;;;17.66;49.24
49030;BME280;43337;52.070;4.508;2022-09-02T01:13:19;101804.88;;;17.65;49.36
49030;BME280;43337;52.070;4.508;2022-09-02T01:15:48;101814.72;;;17.63;49.34
49030;BME280;43337;52.070;4.508;2022-09-02T01:18:18;101803.38;;;17.59;49.26
49030;BME280;43337;52.070;4.508;2022-09-02T01:20:44;101799.13;;;17.56;49.54
49030;BME280;43337;52.070;4.508;2022-09-02T01:23:11;101763.47;;;17.27;49.57
49030;BME280;43337;52.070;4.508;2022-09-02T01:25:37;101782.53;;;17.36;49.66
49030;BME280;43337;52.070;4.508;2022-09-02T01:28:09;101793.69;;;17.42;49.80
49030;BME280;43337;52.070;4.508;2022-09-02T01:30:37;101795.75;;;17.37;49.91
49030;BME280;43337;52.070;4.508;2022-09-02T01:33:05;101782.00;;;17.29;50.30
49030;BME280;43337;52.070;4.508;2022-09-02T01:35:31;101785.59;;;17.28;49.99
49030;BME280;43337;52.070;4.508;2022-09-02T01:37:57;101804.09;;;17.31;50.51
49030;BME280;43337;52.070;4.508;2022-09-02T01:40:25;101797.28;;;17.25;50.47
49030;BME280;43337;52.070;4.508;2022-09-02T01:43:05;101784.13;;;17.06;50.24
49030;BME280;43337;52.070;4.508;2022-09-02T01:45:33;101791.03;;;17.11;50.49
49030;BME280;43337;52.070;4.508;2022-09-02T01:48:00;101785.59;;;17.12;50.56
49030;BME280;43337;52.070;4.508;2022-09-02T01:50:25;101790.13;;;17.10;50.58
49030;BME280;43337;52.070;4.508;2022-09-02T01:52:51;101771.41;;;16.96;50.93
49030;BME280;43337;52.070;4.508;2022-09-02T01:55:17;101773.66;;;17.03;50.83
49030;BME280;43337;52.070;4.508;2022-09-02T01:57:42;101785.31;;;17.01;51.05
49030;BME280;43337;52.070;4.508;2022-09-02T02:00:09;101765.66;;;16.88;50.93
49030;BME280;43337;52.070;4.508;2022-09-02T02:02:37;101781.28;;;16.94;51.18
49030;BME280;43337;52.070;4.508;2022-09-02T02:05:03;101783.19;;;16.92;51.06
49030;BME280;43337;52.070;4.508;2022-09-02T02:07:28;101773.81;;;16.84;51.33
49030;BME280;43337;52.070;4.508;2022-09-02T02:09:54;101772.25;;;16.80;51.16
49030;BME280;43337;52.070;4.508;2022-09-02T02:12:20;101774.75;;;16.83;51.25
49030;BME280;43337;52.070;4.508;2022-09-02T02:14:45;101769.59;;;16.80;51.22
49030;BME280;43337;52.070;4.508;2022-09-02T02:17:13;101773.16;;;16.79;51.24
49030;BME280;43337;52.070;4.508;2022-09-02T02:19:39;101774.97;;;16.79;51.45
49030;BME280;43337;52.070;4.508;2022-09-02T02:22:04;101777.81;;;16.76;51.48
49030;BME280;43337;52.070;4.508;2022-09-02T02:24:30;101772.50;;;16.76;51.51
49030;BME280;43337;52.070;4.508;2022-09-02T02:26:55;101756.28;;;16.63;51.63
49030;BME280;43337;52.070;4.508;2022-09-02T02:29:21;101767.47;;;16.70;51.64
49030;BME280;43337;52.070;4.508;2022-09-02T02:31:47;101746.59;;;16.62;51.68
49030;BME280;43337;52.070;4.508;2022-09-02T02:34:13;101752.78;;;16.63;51.69
49030;BME280;43337;52.070;4.508;2022-09-02T02:36:39;101739.97;;;16.53;51.90
49030;BME280;43337;52.070;4.508;2022-09-02T02:39:06;101766.06;;;16.63;52.04
49030;BME280;43337;52.070;4.508;2022-09-02T02:41:33;101775.06;;;16.60;52.04
49030;BME280;43337;52.070;4.508;2022-09-02T02:43:59;101718.03;;;16.32;51.97
49030;BME280;43337;52.070;4.508;2022-09-02T02:46:24;101762.81;;;16.57;52.07
49030;BME280;43337;52.070;4.508;2022-09-02T02:48:50;101719.06;;;16.30;52.04
49030;BME280;43337;52.070;4.508;2022-09-02T02:51:17;101763.97;;;16.52;52.16
49030;BME280;43337;52.070;4.508;2022-09-02T02:53:42;101746.81;;;16.42;52.27
49030;BME280;43337;52.070;4.508;2022-09-02T02:56:08;101752.03;;;16.43;52.32
49030;BME280;43337;52.070;4.508;2022-09-02T02:58:35;101748.66;;;16.40;52.26
49030;BME280;43337;52.070;4.508;2022-09-02T03:01:01;101755.47;;;16.45;52.70
49030;BME280;43337;52.070;4.508;2022-09-02T03:03:26;101753.22;;;16.38;52.54
49030;BME280;43337;52.070;4.508;2022-09-02T03:05:53;101747.97;;;16.36;52.42
49030;BME280;43337;52.070;4.508;2022-09-02T03:08:20;101748.75;;;16.38;52.46
49030;BME280;43337;52.070;4.508;2022-09-02T03:10:47;101748.91;;;16.35;52.62
49030;BME280;43337;52.070;4.508;2022-09-02T03:13:14;101750.63;;;16.36;52.94
49030;BME280;43337;52.070;4.508;2022-09-02T03:15:40;101739.28;;;16.32;52.75
49030;BME280;43337;52.070;4.508;2022-09-02T03:18:07;101736.88;;;16.28;53.00
49030;BME280;43337;52.070;4.508;2022-09-02T03:20:32;101737.13;;;16.23;53.07
49030;BME280;43337;52.070;4.508;2022-09-02T03:22:58;101743.28;;;16.24;53.16
49030;BME280;43337;52.070;4.508;2022-09-02T03:25:26;101750.41;;;16.23;53.20
49030;BME280;43337;52.070;4.508;2022-09-02T03:27:52;101719.84;;;15.97;53.26
49030;BME280;43337;52.070;4.508;2022-09-02T03:30:21;101743.69;;;16.16;53.25
49030;BME280;43337;52.070;4.508;2022-09-02T03:32:47;101742.97;;;16.13;53.34
49030;BME280;43337;52.070;4.508;2022-09-02T03:35:15;101742.88;;;16.14;53.42
49030;BME280;43337;52.070;4.508;2022-09-02T03:37:43;101741.34;;;16.10;53.39
49030;BME280;43337;52.070;4.508;2022-09-02T03:40:11;101741.28;;;16.11;53.57
49030;BME280;43337;52.070;4.508;2022-09-02T03:42:37;101732.13;;;16.00;53.60
49030;BME280;43337;52.070;4.508;2022-09-02T03:45:05;101719.25;;;15.92;53.66
49030;BME280;43337;52.070;4.508;2022-09-02T03:47:31;101745.25;;;16.03;53.61
49030;BME280;43337;52.070;4.508;2022-09-02T03:49:57;101735.69;;;15.99;53.59
49030;BME280;43337;52.070;4.508;2022-09-02T03:52:23;101727.91;;;15.96;53.69
49030;BME280;43337;52.070;4.508;2022-09-02T03:54:50;101734.09;;;15.96;53.83
49030;BME280;43337;52.070;4.508;2022-09-02T03:57:15;101739.41;;;15.96;53.91
49030;BME280;43337;52.070;4.508;2022-09-02T03:59:41;101713.63;;;15.81;54.07
49030;BME280;43337;52.070;4.508;2022-09-02T04:02:07;101704.22;;;15.74;54.11
49030;BME280;43337;52.070;4.508;2022-09-02T04:04:32;101719.41;;;15.89;54.16
49030;BME280;43337;52.070;4.508;2022-09-02T04:06:58;101723.00;;;15.88;54.22
49030;BME280;43337;52.070;4.508;2022-09-02T04:09:24;101721.09;;;15.90;54.23
49030;BME280;43337;52.070;4.508;2022-09-02T04:11:49;101722.91;;;15.90;54.25
49030;BME280;43337;52.070;4.508;2022-09-02T04:14:15;101708.31;;;15.81;54.45
49030;BME280;43337;52.070;4.508;2022-09-02T04:16:41;101719.47;;;15.88;54.38
49030;BME280;43337;52.070;4.508;2022-09-02T04:19:07;101712.44;;;15.86;54.43
49030;BME280;43337;52.070;4.508;2022-09-02T04:21:36;101713.47;;;15.84;54.49
49030;BME280;43337;52.070;4.508;2022-09-02T04:24:03;101707.59;;;15.77;54.83
49030;BME280;43337;52.070;4.508;2022-09-02T04:26:29;101697.28;;;15.71;54.58
49030;BME280;43337;52.070;4.508;2022-09-02T04:28:54;101717.22;;;15.80;54.74
49030;BME280;43337;52.070;4.508;2022-09-02T04:31:22;101708.44;;;15.78;54.88
49030;BME280;43337;52.070;4.508;2022-09-02T04:33:50;101696.50;;;15.69;54.72
49030;BME280;43337;52.070;4.508;2022-09-02T04:36:17;101699.78;;;15.74;54.97
49030;BME280;43337;52.070;4.508;2022-09-02T04:38:43;101693.06;;;15.67;54.98
49030;BME280;43337;52.070;4.508;2022-09-02T04:41:13;101685.44;;;15.59;54.98
49030;BME280;43337;52.070;4.508;2022-09-02T04:43:39;101710.72;;;15.68;55.29
49030;BME280;43337;52.070;4.508;2022-09-02T04:46:06;101701.13;;;15.64;55.39
49030;BME280;43337;52.070;4.508;2022-09-02T04:48:32;101696.00;;;15.61;55.11
49030;BME280;43337;52.070;4.508;2022-09-02T04:51:03;101687.47;;;15.54;55.11
49030;BME280;43337;52.070;4.508;2022-09-02T04:53:29;101703.00;;;15.62;55.28
49030;BME280;43337;52.070;4.508;2022-09-02T04:55:55;101703.09;;;15.60;55.23
49030;BME280;43337;52.070;4.508;2022-09-02T04:58:20;101682.16;;;15.54;55.27
49030;BME280;43337;52.070;4.508;2022-09-02T05:00:46;101691.22;;;15.50;55.36
49030;BME280;43337;52.070;4.508;2022-09-02T05:03:11;101690.59;;;15.45;55.33
49030;BME280;43337;52.070;4.508;2022-09-02T05:05:37;101687.22;;;15.42;55.53
49030;BME280;43337;52.070;4.508;2022-09-02T05:08:03;101708.09;;;15.49;55.51
49030;BME280;43337;52.070;4.508;2022-09-02T05:10:30;101693.31;;;15.44;55.48
49030;BME280;43337;52.070;4.508;2022-09-02T05:12:57;101705.56;;;15.46;55.69
49030;BME280;43337;52.070;4.508;2022-09-02T05:15:23;101697.97;;;15.38;55.64
49030;BME280;43337;52.070;4.508;2022-09-02T05:17:52;101693.53;;;15.39;55.63
49030;BME280;43337;52.070;4.508;2022-09-02T05:20:18;101693.44;;;15.41;55.58
49030;BME280;43337;52.070;4.508;2022-09-02T05:22:43;101691.88;;;15.36;55.58
49030;BME280;43337;52.070;4.508;2022-09-02T05:25:10;101705.72;;;15.43;55.77
49030;BME280;43337;52.070;4.508;2022-09-02T05:27:36;101706.72;;;15.41;55.72
49030;BME280;43337;52.070;4.508;2022-09-02T05:30:02;101697.19;;;15.36;55.88
49030;BME280;43337;52.070;4.508;2022-09-02T05:32:28;101691.13;;;15.34;55.81
49030;BME280;43337;52.070;4.508;2022-09-02T05:34:54;101705.00;;;15.39;55.85
49030;BME280;43337;52.070;4.508;2022-09-02T05:37:20;101710.06;;;15.44;56.08
49030;BME280;43337;52.070;4.508;2022-09-02T05:39:46;101699.84;;;15.36;55.84
49030;BME280;43337;52.070;4.508;2022-09-02T05:42:11;101711.16;;;15.40;56.05
49030;BME280;43337;52.070;4.508;2022-09-02T05:44:37;101712.03;;;15.41;56.11
49030;BME280;43337;52.070;4.508;2022-09-02T05:47:03;101708.47;;;15.42;56.17
49030;BME280;43337;52.070;4.508;2022-09-02T05:49:29;101710.31;;;15.39;56.28
49030;BME280;43337;52.070;4.508;2022-09-02T05:51:57;101702.63;;;15.33;56.19
49030;BME280;43337;52.070;4.508;2022-09-02T05:54:27;101716.34;;;15.43;56.38
49030;BME280;43337;52.070;4.508;2022-09-02T05:56:55;101706.50;;;15.45;56.20
49030;BME280;43337;52.070;4.508;2022-09-02T05:59:22;101710.78;;;15.48;56.33
49030;BME280;43337;52.070;4.508;2022-09-02T06:01:48;101703.69;;;15.48;56.23
49030;BME280;43337;52.070;4.508;2022-09-02T06:04:13;101706.28;;;15.50;56.36
49030;BME280;43337;52.070;4.508;2022-09-02T06:06:39;101699.22;;;15.49;56.40
49030;BME280;43337;52.070;4.508;2022-09-02T06:09:08;101700.84;;;15.53;56.50
49030;BME280;43337;52.070;4.508;2022-09-02T06:11:39;101694.63;;;15.52;56.44
49030;BME280;43337;52.070;4.508;2022-09-02T06:14:09;101693.53;;;15.56;56.40
49030;BME280;43337;52.070;4.508;2022-09-02T06:16:35;101696.16;;;15.58;56.44
49030;BME280;43337;52.070;4.508;2022-09-02T06:19:00;101690.34;;;15.50;56.57
49030;BME280;43337;52.070;4.508;2022-09-02T06:21:28;101679.97;;;15.45;56.59
49030;BME280;43337;52.070;4.508;2022-09-02T06:23:54;101703.09;;;15.60;56.53
49030;BME280;43337;52.070;4.508;2022-09-02T06:26:20;101680.44;;;15.53;56.52
49030;BME280;43337;52.070;4.508;2022-09-02T06:28:45;101693.13;;;15.66;56.28
49030;BME280;43337;52.070;4.508;2022-09-02T06:31:16;101694.78;;;15.68;56.46
49030;BME280;43337;52.070;4.508;2022-09-02T06:33:43;101687.44;;;15.73;56.49
49030;BME280;43337;52.070;4.508;2022-09-02T06:36:13;101696.81;;;15.80;56.48
49030;BME280;43337;52.070;4.508;2022-09-02T06:38:41;101700.00;;;15.87;56.39
49030;BME280;43337;52.070;4.508;2022-09-02T06:41:10;101701.25;;;15.97;56.22
49030;BME280;43337;52.070;4.508;2022-09-02T06:43:35;101681.13;;;15.93;56.40
49030;BME280;43337;52.070;4.508;2022-09-02T06:46:00;101698.69;;;16.13;56.44
49030;BME280;43337;52.070;4.508;2022-09-02T06:48:26;101676.47;;;16.14;56.21
49030;BME280;43337;52.070;4.508;2022-09-02T06:50:52;101689.84;;;16.30;56.05
49030;BME280;43337;52.070;4.508;2022-09-02T06:53:18;101669.75;;;16.24;56.00
49030;BME280;43337;52.070;4.508;2022-09-02T06:55:44;101666.78;;;16.30;55.83
49030;BME280;43337;52.070;4.508;2022-09-02T06:58:10;101690.63;;;16.48;55.71
49030;BME280;43337;52.070;4.508;2022-09-02T07:00:37;101684.38;;;16.49;55.80
49030;BME280;43337;52.070;4.508;2022-09-02T07:03:03;101690.88;;;16.60;55.88
49030;BME280;43337;52.070;4.508;2022-09-02T07:05:58;101692.31;;;16.66;55.63
49030;BME280;43337;52.070;4.508;2022-09-02T07:08:23;101676.25;;;16.68;55.61
49030;BME280;43337;52.070;4.508;2022-09-02T07:10:49;101682.75;;;16.79;55.59
49030;BME280;43337;52.070;4.508;2022-09-02T07:13:16;101686.88;;;16.85;55.41
49030;BME280;43337;52.070;4.508;2022-09-02T07:15:41;101682.16;;;16.90;55.22
49030;BME280;43337;52.070;4.508;2022-09-02T07:18:07;101674.00;;;16.93;55.16
49030;BME280;43337;52.070;4.508;2022-09-02T07:20:32;101674.28;;;17.04;55.17
49030;BME280;43337;52.070;4.508;2022-09-02T07:22:58;101668.00;;;17.05;55.24
49030;BME280;43337;52.070;4.508;2022-09-02T07:25:23;101660.88;;;17.06;55.40
49030;BME280;43337;52.070;4.508;2022-09-02T07:27:48;101667.28;;;17.18;55.23
49030;BME280;43337;52.070;4.508;2022-09-02T07:30:15;101682.59;;;17.30;55.23
49030;BME280;43337;52.070;4.508;2022-09-02T07:32:41;101662.22;;;17.29;55.30
49030;BME280;43337;52.070;4.508;2022-09-02T07:35:07;101665.13;;;17.40;55.26
49030;BME280;43337;52.070;4.508;2022-09-02T07:37:33;101673.44;;;17.50;54.74
49030;BME280;43337;52.070;4.508;2022-09-02T07:40:03;101661.66;;;17.54;54.97
49030;BME280;43337;52.070;4.508;2022-09-02T07:42:29;101656.06;;;17.58;54.88
49030;BME280;43337;52.070;4.508;2022-09-02T07:44:55;101653.81;;;17.67;54.54
49030;BME280;43337;52.070;4.508;2022-09-02T07:47:20;101644.63;;;17.72;54.58
49030;BME280;43337;52.070;4.508;2022-09-02T07:49:45;101647.78;;;17.79;54.44
49030;BME280;43337;52.070;4.508;2022-09-02T07:52:11;101643.13;;;17.83;54.54
49030;BME280;43337;52.070;4.508;2022-09-02T07:54:36;101659.81;;;18.00;54.47
49030;BME280;43337;52.070;4.508;2022-09-02T07:57:02;101638.50;;;18.00;54.14
49030;BME280;43337;52.070;4.508;2022-09-02T07:59:27;101646.03;;;18.08;53.79
49030;BME280;43337;52.070;4.508;2022-09-02T08:01:53;101663.19;;;18.18;54.08
49030;BME280;43337;52.070;4.508;2022-09-02T08:04:19;101662.03;;;18.22;53.77
49030;BME280;43337;52.070;4.508;2022-09-02T08:06:48;101655.56;;;18.26;54.10
49030;BME280;43337;52.070;4.508;2022-09-02T08:09:14;101636.97;;;18.25;53.95
49030;BME280;43337;52.070;4.508;2022-09-02T08:11:42;101657.66;;;18.36;53.91
49030;BME280;43337;52.070;4.508;2022-09-02T08:14:15;101659.66;;;18.46;53.80
49030;BME280;43337;52.070;4.508;2022-09-02T08:16:42;101652.03;;;18.54;53.64
49030;BME280;43337;52.070;4.508;2022-09-02T08:19:09;101648.78;;;18.64;53.21
49030;BME280;43337;52.070;4.508;2022-09-02T08:21:34;101651.25;;;18.67;52.96
49030;BME280;43337;52.070;4.508;2022-09-02T08:24:00;101648.06;;;18.76;52.96
49030;BME280;43337;52.070;4.508;2022-09-02T08:26:26;101649.25;;;18.85;52.75
49030;BME280;43337;52.070;4.508;2022-09-02T08:28:53;101628.22;;;18.80;52.65
49030;BME280;43337;52.070;4.508;2022-09-02T08:31:19;101642.59;;;18.92;52.71
49030;BME280;43337;52.070;4.508;2022-09-02T08:33:44;101613.53;;;18.87;52.48
49030;BME280;43337;52.070;4.508;2022-09-02T08:36:10;101638.59;;;19.12;52.30
49030;BME280;43337;52.070;4.508;2022-09-02T08:38:38;101638.50;;;19.13;52.22
49030;BME280;43337;52.070;4.508;2022-09-02T08:44:09;101638.06;;;19.34;52.24
49030;BME280;43337;52.070;4.508;2022-09-02T08:46:36;101640.09;;;19.43;51.98
49030;BME280;43337;52.070;4.508;2022-09-02T08:49:15;101634.34;;;19.49;51.45
49030;BME280;43337;52.070;4.508;2022-09-02T08:51:49;101638.31;;;19.56;51.64
49030;BME280;43337;52.070;4.508;2022-09-02T08:56:43;101640.72;;;19.73;52.09
49030;BME280;43337;52.070;4.508;2022-09-02T08:59:09;101624.38;;;19.78;51.93
49030;BME280;43337;52.070;4.508;2022-09-02T09:10:21;101628.75;;;20.17;51.44
49030;BME280;43337;52.070;4.508;2022-09-02T09:15:52;101622.03;;;20.24;51.08
49030;BME280;43337;52.070;4.508;2022-09-02T09:18:32;101629.53;;;20.19;51.19
49030;BME280;43337;52.070;4.508;2022-09-02T09:21:01;101631.34;;;20.19;51.09
49030;BME280;43337;52.070;4.508;2022-09-02T09:23:37;101627.38;;;20.12;51.01
49030;BME280;43337;52.070;4.508;2022-09-02T09:26:15;101616.47;;;20.02;50.77
49030;BME280;43337;52.070;4.508;2022-09-02T09:28:47;101624.59;;;20.00;50.63
49030;BME280;43337;52.070;4.508;2022-09-02T09:31:19;101626.53;;;19.98;51.10
49030;BME280;43337;52.070;4.508;2022-09-02T09:33:56;101617.88;;;19.95;51.08
49030;BME280;43337;52.070;4.508;2022-09-02T09:39:31;101622.91;;;19.99;51.23
49030;BME280;43337;52.070;4.508;2022-09-02T09:42:11;101614.75;;;20.01;51.44
49030;BME280;43337;52.070;4.508;2022-09-02T09:44:46;101620.03;;;20.03;51.25
49030;BME280;43337;52.070;4.508;2022-09-02T09:47:17;101613.25;;;20.10;51.38
49030;BME280;43337;52.070;4.508;2022-09-02T09:49:45;101614.47;;;20.18;51.43
49030;BME280;43337;52.070;4.508;2022-09-02T09:52:10;101604.28;;;20.23;51.59
49030;BME280;43337;52.070;4.508;2022-09-02T09:54:36;101610.03;;;20.43;51.72
49030;BME280;43337;52.070;4.508;2022-09-02T09:57:18;101600.81;;;20.60;51.44
49030;BME280;43337;52.070;4.508;2022-09-02T09:59:46;101608.88;;;20.84;51.27
49030;BME280;43337;52.070;4.508;2022-09-02T10:02:23;101611.91;;;21.03;50.34
49030;BME280;43337;52.070;4.508;2022-09-02T10:04:51;101605.50;;;21.17;50.71
49030;BME280;43337;52.070;4.508;2022-09-02T10:07:38;101596.63;;;21.40;50.24
49030;BME280;43337;52.070;4.508;2022-09-02T10:10:24;101593.78;;;21.66;50.55
49030;BME280;43337;52.070;4.508;2022-09-02T10:12:52;101569.28;;;21.70;49.80
49030;BME280;43337;52.070;4.508;2022-09-02T10:15:39;101604.44;;;22.01;49.68
49030;BME280;43337;52.070;4.508;2022-09-02T10:18:22;101599.94;;;22.13;49.37
49030;BME280;43337;52.070;4.508;2022-09-02T10:21:07;101597.66;;;22.20;49.18
49030;BME280;43337;52.070;4.508;2022-09-02T10:23:43;101607.78;;;22.38;49.07
49030;BME280;43337;52.070;4.508;2022-09-02T10:31:39;101574.41;;;22.63;48.22
49030;BME280;43337;52.070;4.508;2022-09-02T10:37:20;101586.81;;;22.98;47.72
49030;BME280;43337;52.070;4.508;2022-09-02T10:39:54;101586.75;;;23.09;47.51
49030;BME280;43337;52.070;4.508;2022-09-02T10:45:23;101574.66;;;23.15;47.34
49030;BME280;43337;52.070;4.508;2022-09-02T10:48:49;101574.47;;;23.28;47.87
49030;BME280;43337;52.070;4.508;2022-09-02T10:53:51;101574.38;;;23.50;47.04
49030;BME280;43337;52.070;4.508;2022-09-02T10:56:32;101562.81;;;23.59;46.79
49030;BME280;43337;52.070;4.508;2022-09-02T11:04:12;101553.63;;;23.83;45.51
49030;BME280;43337;52.070;4.508;2022-09-02T11:06:44;101559.91;;;23.93;45.69
49030;BME280;43337;52.070;4.508;2022-09-02T11:09:25;101548.63;;;23.99;45.59
49030;BME280;43337;52.070;4.508;2022-09-02T11:12:03;101549.25;;;24.12;45.22
49030;BME280;43337;52.070;4.508;2022-09-02T11:14:36;101549.72;;;24.27;45.64
49030;BME280;43337;52.070;4.508;2022-09-02T11:17:15;101544.97;;;24.41;45.53
49030;BME280;43337;52.070;4.508;2022-09-02T11:19:57;101546.00;;;24.59;45.20
49030;BME280;43337;52.070;4.508;2022-09-02T11:22:48;101534.53;;;24.67;44.61
49030;BME280;43337;52.070;4.508;2022-09-02T11:25:33;101540.38;;;24.81;44.49
49030;BME280;43337;52.070;4.508;2022-09-02T11:28:07;101532.44;;;24.90;44.35
49030;BME280;43337;52.070;4.508;2022-09-02T11:30:42;101534.84;;;25.02;44.29
49030;BME280;43337;52.070;4.508;2022-09-02T11:33:16;101534.44;;;25.17;43.70
49030;BME280;43337;52.070;4.508;2022-09-02T11:35:43;101528.03;;;25.27;43.66
49030;BME280;43337;52.070;4.508;2022-09-02T11:55:24;101503.50;;;25.77;41.53
49030;BME280;43337;52.070;4.508;2022-09-02T11:57:54;101508.63;;;25.80;41.77
49030;BME280;43337;52.070;4.508;2022-09-02T12:00:34;101506.44;;;25.94;41.59
49030;BME280;43337;52.070;4.508;2022-09-02T12:07:56;101484.06;;;26.11;39.86
49030;BME280;43337;52.070;4.508;2022-09-02T12:13:05;101497.38;;;26.22;39.67
49030;BME280;43337;52.070;4.508;2022-09-02T12:15:32;101489.56;;;26.19;39.64
49030;BME280;43337;52.070;4.508;2022-09-02T12:18:27;101491.25;;;26.20;39.64
49030;BME280;43337;52.070;4.508;2022-09-02T12:28:48;101478.00;;;26.27;38.41
49030;BME280;43337;52.070;4.508;2022-09-02T12:33:46;101477.63;;;26.40;36.94
49030;BME280;43337;52.070;4.508;2022-09-02T12:50:01;101454.81;;;26.52;34.82
49030;BME280;43337;52.070;4.508;2022-09-02T12:55:22;101462.38;;;26.66;33.30
49030;BME280;43337;52.070;4.508;2022-09-02T12:57:51;101458.38;;;26.70;34.06
49030;BME280;43337;52.070;4.508;2022-09-02T13:05:55;101448.63;;;26.77;33.62
49030;BME280;43337;52.070;4.508;2022-09-02T13:29:36;101434.16;;;27.22;32.35
49030;BME280;43337;52.070;4.508;2022-09-02T13:34:42;101416.81;;;27.33;32.13
49030;BME280;43337;52.070;4.508;2022-09-02T13:37:32;101407.31;;;27.29;32.54
49030;BME280;43337;52.070;4.508;2022-09-02T13:39:58;101413.41;;;27.31;31.78
49030;BME280;43337;52.070;4.508;2022-09-02T13:42:27;101406.63;;;27.27;31.76
49030;BME280;43337;52.070;4.508;2022-09-02T13:45:11;101418.31;;;27.36;30.73
49030;BME280;43337;52.070;4.508;2022-09-02T13:47:41;101391.25;;;27.27;31.47
49030;BME280;43337;52.070;4.508;2022-09-02T13:50:07;101422.63;;;27.46;31.32
49030;BME280;43337;52.070;4.508;2022-09-02T13:52:35;101412.31;;;27.50;31.10
49030;BME280;43337;52.070;4.508;2022-09-02T13:55:03;101419.63;;;27.58;31.55
49030;BME280;43337;52.070;4.508;2022-09-02T13:57:30;101404.75;;;27.62;31.11
49030;BME280;43337;52.070;4.508;2022-09-02T13:59:56;101408.00;;;27.65;31.39
49030;BME280;43337;52.070;4.508;2022-09-02T14:02:28;101398.84;;;27.66;31.73
49030;BME280;43337;52.070;4.508;2022-09-02T14:07:43;101395.91;;;27.51;29.90
49030;BME280;43337;52.070;4.508;2022-09-02T14:10:11;101394.78;;;27.62;31.43
49030;BME280;43337;52.070;4.508;2022-09-02T14:12:39;101387.00;;;27.59;32.08
49030;BME280;43337;52.070;4.508;2022-09-02T14:15:07;101389.06;;;27.65;31.36
49030;BME280;43337;52.070;4.508;2022-09-02T14:17:33;101379.06;;;27.66;31.65
49030;BME280;43337;52.070;4.508;2022-09-02T14:22:33;101392.16;;;27.79;31.04
49030;BME280;43337;52.070;4.508;2022-09-02T14:25:15;101394.88;;;27.79;30.83
49030;BME280;43337;52.070;4.508;2022-09-02T14:27:55;101375.22;;;27.68;29.99
49030;BME280;43337;52.070;4.508;2022-09-02T14:30:36;101369.28;;;27.73;30.75
49030;BME280;43337;52.070;4.508;2022-09-02T14:38:52;101353.63;;;27.77;30.18
49030;BME280;43337;52.070;4.508;2022-09-02T14:41:27;101360.06;;;27.84;29.34
49030;BME280;43337;52.070;4.508;2022-09-02T14:43:58;101359.56;;;27.88;30.53
49030;BME280;43337;52.070;4.508;2022-09-02T14:46:32;101347.22;;;27.94;29.95
49030;BME280;43337;52.070;4.508;2022-09-02T14:51:45;101353.84;;;28.08;29.35
49030;BME280;43337;52.070;4.508;2022-09-02T14:54:44;101351.97;;;28.00;29.45
49030;BME280;43337;52.070;4.508;2022-09-02T14:57:38;101348.75;;;28.05;28.88
49030;BME280;43337;52.070;4.508;2022-09-02T15:00:07;101344.03;;;28.07;29.17
49030;BME280;43337;52.070;4.508;2022-09-02T15:02:35;101344.19;;;28.05;29.20
49030;BME280;43337;52.070;4.508;2022-09-02T15:05:03;101334.19;;;28.06;29.38
49030;BME280;43337;52.070;4.508;2022-09-02T15:07:30;101344.69;;;28.09;29.36
49030;BME280;43337;52.070;4.508;2022-09-02T15:09:56;101331.66;;;28.04;29.32
49030;BME280;43337;52.070;4.508;2022-09-02T15:12:29;101330.66;;;28.05;29.07
49030;BME280;43337;52.070;4.508;2022-09-02T15:14:56;101334.56;;;28.03;29.22
49030;BME280;43337;52.070;4.508;2022-09-02T15:17:22;101342.16;;;28.07;29.48